Time;durP1;ratioP1;P1;durP2;ratioP2;P2;SDS_P1;SDS_P2;PMS_P1;PMS_P2;Temp;Humidity;BMP_temperature;BMP_pressure;BME280_temperature;BME280_humidity;BME280_pressure;Samples;Min_cycle;Max_cycle;Signal;HPM_P1;HPM_P2
2022/12/18 00:00:32;;;;;;;87.75;35.25;;;-2.50;85.00;;;;;;4975637;28;20057;-70
2022/12/18 00:02:57;;;;;;;89.18;35.97;;;-2.50;85.10;;;;;;4986392;28;20402;-70
2022/12/18 00:05:23;;;;;;;86.55;34.33;;;-2.50;85.10;;;;;;4981011;28;20030;-70
2022/12/18 00:07:48;;;;;;;85.72;34.75;;;-2.40;85.10;;;;;;4977198;28;20034;-70
2022/12/18 00:10:14;;;;;;;86.60;33.97;;;-2.40;85.10;;;;;;4981514;28;20126;-69
2022/12/18 00:12:40;;;;;;;93.57;37.38;;;-2.40;84.90;;;;;;4972241;28;20494;-69
2022/12/18 00:15:08;;;;;;;81.20;33.40;;;-2.40;84.90;;;;;;4977187;28;20533;-69
2022/12/18 00:17:34;;;;;;;84.95;34.47;;;-2.40;84.90;;;;;;4981376;28;20085;-70
2022/12/18 00:19:59;;;;;;;80.03;33.80;;;-2.40;84.90;;;;;;4976835;28;20054;-70
2022/12/18 00:22:25;;;;;;;85.28;34.25;;;-2.40;84.90;;;;;;4979412;28;20026;-69
2022/12/18 00:24:50;;;;;;;84.40;33.72;;;-2.40;85.10;;;;;;4974004;28;20668;-67
2022/12/18 00:27:16;;;;;;;89.32;34.20;;;-2.40;85.10;;;;;;4976286;28;20426;-69
2022/12/18 00:29:41;;;;;;;80.20;33.25;;;-2.40;85.10;;;;;;4976325;28;21479;-69
2022/12/18 00:32:07;;;;;;;80.53;33.78;;;-2.40;85.10;;;;;;4979966;28;20038;-68
2022/12/18 00:34:32;;;;;;;82.20;34.10;;;-2.40;85.10;;;;;;4980233;28;20042;-69
2022/12/18 00:36:58;;;;;;;80.80;33.42;;;-2.30;85.00;;;;;;4975667;28;20818;-69
2022/12/18 00:39:23;;;;;;;87.88;33.35;;;-2.40;85.00;;;;;;4975485;28;20042;-69
2022/12/18 00:44:33;;;;;;;88.25;33.58;;;-2.40;84.90;;;;;;4987444;28;20072;-70
2022/12/18 00:46:59;;;;;;;88.88;34.55;;;-2.30;84.90;;;;;;4978733;28;20042;-70
2022/12/18 00:49:24;;;;;;;87.97;34.60;;;-2.40;84.80;;;;;;4980244;28;20042;-69
2022/12/18 00:51:50;;;;;;;82.07;33.33;;;-2.40;84.80;;;;;;4977908;28;20066;-69
2022/12/18 00:54:16;;;;;;;86.90;33.65;;;-2.40;84.70;;;;;;4973702;28;20035;-69
2022/12/18 00:56:41;;;;;;;82.32;32.58;;;-2.40;84.70;;;;;;4973089;28;20030;-70
2022/12/18 00:59:07;;;;;;;85.93;32.72;;;-2.40;84.80;;;;;;4974772;28;21789;-69
2022/12/18 01:01:33;;;;;;;86.55;33.72;;;-2.40;84.90;;;;;;4976674;28;20505;-70
2022/12/18 01:04:00;;;;;;;84.93;33.85;;;-2.40;84.90;;;;;;4974232;28;20283;-69
2022/12/18 01:06:26;;;;;;;86.32;34.05;;;-2.40;84.90;;;;;;4973637;28;20046;-70
2022/12/18 01:08:52;;;;;;;83.53;33.17;;;-2.40;84.90;;;;;;4974920;28;20042;-70
2022/12/18 01:11:20;;;;;;;88.25;34.67;;;-2.40;84.90;;;;;;4975952;28;20034;-68
2022/12/18 01:13:46;;;;;;;89.95;35.90;;;-2.40;84.90;;;;;;4978314;28;20030;-69
2022/12/18 01:16:16;;;;;;;88.30;33.75;;;-2.50;84.80;;;;;;4970944;28;20042;-68
2022/12/18 01:18:42;;;;;;;97.30;35.05;;;-2.50;84.80;;;;;;4974009;28;20038;-69
2022/12/18 01:21:10;;;;;;;90.68;35.10;;;-2.50;84.90;;;;;;4979515;28;20042;-69
2022/12/18 01:23:36;;;;;;;84.03;31.63;;;-2.60;84.90;;;;;;4974537;28;20038;-69
2022/12/18 01:26:10;;;;;;;87.50;34.00;;;-2.60;85.00;;;;;;4975079;28;20107;-69
2022/12/18 01:28:37;;;;;;;86.35;32.55;;;-2.60;85.10;;;;;;4974610;28;20092;-69
2022/12/18 01:31:14;;;;;;;82.10;32.85;;;-2.60;85.10;;;;;;4978171;28;20038;-69
2022/12/18 01:33:40;;;;;;;89.53;34.03;;;-2.60;85.10;;;;;;4976929;28;20038;-69
2022/12/18 01:36:05;;;;;;;81.80;30.65;;;-2.60;85.10;;;;;;4979958;28;20089;-69
2022/12/18 01:38:31;;;;;;;93.20;34.03;;;-2.60;85.10;;;;;;4975968;28;20041;-69
2022/12/18 01:40:58;;;;;;;85.85;33.55;;;-2.60;85.10;;;;;;4978397;28;20410;-69
2022/12/18 01:44:00;;;;;;;83.63;33.10;;;-2.50;85.10;;;;;;4973725;28;20034;-68
2022/12/18 01:46:27;;;;;;;93.13;34.72;;;-2.50;85.10;;;;;;4977487;28;20741;-70
2022/12/18 01:48:59;;;;;;;84.93;33.83;;;-2.50;85.10;;;;;;4976505;28;20042;-69
2022/12/18 01:51:27;;;;;;;97.70;35.97;;;-2.50;84.90;;;;;;4979039;28;20035;-69
2022/12/18 01:53:53;;;;;;;86.05;33.35;;;-2.50;84.90;;;;;;4972023;28;20492;-69
2022/12/18 01:56:20;;;;;;;86.88;32.95;;;-2.50;84.90;;;;;;4977497;28;20027;-68
2022/12/18 01:59:01;;;;;;;88.45;33.58;;;-2.50;84.90;;;;;;4975681;28;20049;-68
2022/12/18 02:01:30;;;;;;;97.20;35.38;;;-2.50;84.90;;;;;;4978191;28;20402;-69
2022/12/18 02:04:13;;;;;;;93.70;34.53;;;-2.50;85.00;;;;;;4976059;28;20045;-69
2022/12/18 02:06:40;;;;;;;87.43;33.30;;;-2.50;85.10;;;;;;4976634;28;20084;-68
2022/12/18 02:09:14;;;;;;;91.93;34.78;;;-2.50;85.10;;;;;;4975448;28;20058;-69
2022/12/18 02:11:58;;;;;;;91.32;34.95;;;-2.50;85.10;;;;;;4972320;28;20082;-70
2022/12/18 02:14:59;;;;;;;93.60;34.37;;;-2.50;85.20;;;;;;4974485;28;20023;-69
2022/12/18 02:17:39;;;;;;;86.70;32.05;;;-2.50;85.20;;;;;;4959139;28;20266;-70
2022/12/18 02:20:10;;;;;;;85.70;32.83;;;-2.50;85.10;;;;;;4981774;28;20518;-69
2022/12/18 02:22:41;;;;;;;88.80;33.88;;;-2.50;85.10;;;;;;4983204;28;20437;-68
2022/12/18 02:25:25;;;;;;;90.13;33.13;;;-2.50;85.00;;;;;;4984155;28;20088;-69
2022/12/18 02:27:51;;;;;;;87.63;34.25;;;-2.50;85.00;;;;;;4983182;28;20110;-69
2022/12/18 02:30:18;;;;;;;89.18;32.30;;;-2.50;84.90;;;;;;4982413;28;20051;-68
2022/12/18 02:32:52;;;;;;;90.68;34.35;;;-2.50;84.80;;;;;;4975066;28;20064;-68
2022/12/18 02:35:24;;;;;;;92.40;33.85;;;-2.50;84.80;;;;;;4975221;28;20561;-70
2022/12/18 02:37:54;;;;;;;97.70;33.75;;;-2.50;84.80;;;;;;4975531;28;20038;-69
2022/12/18 02:40:22;;;;;;;93.95;34.35;;;-2.50;84.70;;;;;;4977219;28;20043;-68
2022/12/18 02:42:47;;;;;;;86.88;32.50;;;-2.50;84.80;;;;;;4975912;28;20069;-69
2022/12/18 02:45:13;;;;;;;91.10;34.17;;;-2.50;84.80;;;;;;4975285;28;20600;-69
2022/12/18 02:47:43;;;;;;;92.70;34.65;;;-2.50;84.90;;;;;;4977465;28;20594;-69
2022/12/18 02:50:27;;;;;;;96.40;36.42;;;-2.40;84.90;;;;;;4973813;28;20054;-68
2022/12/18 02:53:18;;;;;;;97.22;35.65;;;-2.40;84.90;;;;;;4977002;28;20355;-69
2022/12/18 02:55:58;;;;;;;97.05;34.03;;;-2.40;84.90;;;;;;4976041;28;20045;-68
2022/12/18 02:58:33;;;;;;;97.18;35.75;;;-2.40;84.80;;;;;;4978262;28;20030;-69
2022/12/18 03:01:22;;;;;;;101.18;35.80;;;-2.40;84.70;;;;;;4978000;28;20481;-69
2022/12/18 03:03:57;;;;;;;96.82;35.75;;;-2.50;84.60;;;;;;4947697;28;20137;-69
2022/12/18 03:06:25;;;;;;;;;;;-2.50;84.70;;;;;;4984589;28;20580;-68
2022/12/18 03:08:57;;;;;;;97.05;33.22;;;-2.50;84.80;;;;;;4986211;28;19925;-69
2022/12/18 03:14:15;;;;;;;99.32;36.67;;;-2.50;84.60;;;;;;4978149;28;20037;-69
2022/12/18 03:16:43;;;;;;;96.20;35.45;;;-2.50;84.60;;;;;;4979452;28;20518;-69
2022/12/18 03:19:15;;;;;;;104.93;37.05;;;-2.50;84.50;;;;;;4976370;28;20266;-69
2022/12/18 03:21:44;;;;;;;91.13;34.97;;;-2.50;84.50;;;;;;4979108;28;20046;-69
2022/12/18 03:24:11;;;;;;;101.75;35.67;;;-2.60;84.40;;;;;;4986090;28;20045;-69
2022/12/18 03:26:41;;;;;;;98.10;36.08;;;-2.60;84.60;;;;;;4975949;28;20046;-69
2022/12/18 03:29:14;;;;;;;95.50;35.20;;;-2.60;84.60;;;;;;4983921;28;20042;-69
2022/12/18 03:31:45;;;;;;;94.57;34.35;;;-2.70;84.60;;;;;;4981439;28;20410;-69
2022/12/18 03:34:17;;;;;;;102.47;34.83;;;-2.70;84.70;;;;;;4982047;28;20038;-69
2022/12/18 03:36:43;;;;;;;98.30;33.90;;;-2.70;84.90;;;;;;4981724;28;20493;-69
2022/12/18 03:39:09;;;;;;;91.25;33.08;;;-2.70;84.90;;;;;;4983666;28;20046;-69
2022/12/18 03:41:57;;;;;;;92.47;33.97;;;-2.80;84.90;;;;;;4981610;28;20125;-69
2022/12/18 03:44:41;;;;;;;103.28;35.80;;;-2.70;85.10;;;;;;4980528;28;21357;-69
2022/12/18 03:47:48;;;;;;;87.35;33.97;;;-2.70;85.10;;;;;;4979987;28;20034;-69
2022/12/18 03:50:21;;;;;;;98.80;33.70;;;-2.70;85.20;;;;;;4949066;28;20045;-69
2022/12/18 03:52:56;;;;;;;100.88;34.58;;;-2.70;85.20;;;;;;4979695;28;20589;-69
2022/12/18 03:55:24;;;;;;;106.13;35.35;;;-2.70;85.10;;;;;;4978394;28;20046;-69
2022/12/18 03:57:51;;;;;;;102.30;34.92;;;-2.70;84.90;;;;;;4979583;28;20041;-68
2022/12/18 04:00:18;;;;;;;98.80;35.75;;;-2.70;84.80;;;;;;4980434;28;20053;-69
2022/12/18 04:02:56;;;;;;;99.68;34.38;;;-2.70;84.70;;;;;;4980793;28;20153;-69
2022/12/18 04:05:24;;;;;;;98.90;35.75;;;-2.70;84.60;;;;;;4985674;28;20034;-69
2022/12/18 04:07:51;;;;;;;103.15;35.85;;;-2.70;84.70;;;;;;4977209;28;20047;-69
2022/12/18 04:10:18;;;;;;;102.07;34.85;;;-2.80;84.70;;;;;;4982969;28;20564;-69
2022/12/18 04:12:44;;;;;;;100.07;34.67;;;-2.80;84.70;;;;;;4978828;28;20076;-69
2022/12/18 04:15:10;;;;;;;98.72;34.95;;;-2.80;84.90;;;;;;4981473;28;20133;-69
2022/12/18 04:17:36;;;;;;;99.22;34.47;;;-2.70;85.10;;;;;;4981209;28;20063;-69
2022/12/18 04:20:02;;;;;;;92.68;34.25;;;-2.80;85.10;;;;;;4977371;28;20141;-68
2022/12/18 04:22:28;;;;;;;90.60;33.72;;;-2.70;85.10;;;;;;4977811;28;20034;-69
2022/12/18 04:24:53;;;;;;;105.35;37.15;;;-2.80;85.10;;;;;;4977600;28;20528;-69
2022/12/18 04:27:22;;;;;;;100.38;33.90;;;-2.70;85.00;;;;;;4979405;28;20059;-68
2022/12/18 04:29:47;;;;;;;108.07;36.97;;;-2.70;84.80;;;;;;4977768;28;20045;-69
2022/12/18 04:32:13;;;;;;;95.72;34.78;;;-2.70;84.90;;;;;;4980622;28;20406;-68
2022/12/18 04:34:38;;;;;;;103.78;36.65;;;-2.70;84.90;;;;;;4978103;28;20058;-69
2022/12/18 04:37:04;;;;;;;102.60;35.83;;;-2.70;84.90;;;;;;4985201;28;20109;-69
2022/12/18 04:39:30;;;;;;;97.95;35.78;;;-2.70;84.90;;;;;;4977141;28;20042;-69
2022/12/18 04:41:55;;;;;;;100.60;35.20;;;-2.70;84.90;;;;;;4983656;28;20038;-69
2022/12/18 04:44:21;;;;;;;108.10;38.03;;;-2.70;84.90;;;;;;4979320;28;20042;-69
2022/12/18 04:46:46;;;;;;;100.25;36.03;;;-2.70;84.70;;;;;;4982544;28;20034;-69
2022/12/18 04:49:12;;;;;;;100.93;36.75;;;-2.70;84.60;;;;;;4975046;28;20398;-69
2022/12/18 04:51:38;;;;;;;107.65;36.13;;;-2.80;84.40;;;;;;4978069;28;20034;-69
2022/12/18 04:54:04;;;;;;;103.47;37.25;;;-2.70;84.60;;;;;;4977334;28;20502;-69
2022/12/18 04:56:31;;;;;;;97.65;35.40;;;-2.80;84.60;;;;;;4978429;28;20053;-69
2022/12/18 04:58:57;;;;;;;103.10;36.00;;;-2.80;84.60;;;;;;4977887;28;20038;-70
2022/12/18 05:01:22;;;;;;;103.70;36.03;;;-2.90;84.50;;;;;;4977803;28;20783;-69
2022/12/18 05:03:48;;;;;;;95.35;33.63;;;-2.90;84.60;;;;;;4975084;28;20031;-69
2022/12/18 05:06:13;;;;;;;100.88;35.53;;;-2.90;84.70;;;;;;4981386;28;20114;-69
2022/12/18 05:08:39;;;;;;;98.20;33.35;;;-2.90;85.00;;;;;;4976958;28;20088;-69
2022/12/18 05:11:10;;;;;;;95.68;35.28;;;-2.90;85.00;;;;;;4980263;28;20027;-68
2022/12/18 05:13:37;;;;;;;98.00;34.78;;;-2.90;85.10;;;;;;4973783;28;20436;-69
2022/12/18 05:16:04;;;;;;;97.32;35.17;;;-2.90;85.10;;;;;;4974870;28;20536;-69
2022/12/18 05:18:30;;;;;;;100.90;35.92;;;-2.90;85.10;;;;;;4976566;28;20434;-69
2022/12/18 05:20:55;;;;;;;101.78;36.53;;;-2.90;85.10;;;;;;4975997;28;20062;-70
2022/12/18 05:23:22;;;;;;;101.32;35.50;;;-2.90;85.00;;;;;;4978608;28;20030;-69
2022/12/18 05:25:57;;;;;;;103.85;36.47;;;-2.90;85.00;;;;;;4978430;28;20030;-69
2022/12/18 05:28:24;;;;;;;100.65;37.08;;;-2.90;84.90;;;;;;4979499;28;20041;-69
2022/12/18 05:30:55;;;;;;;104.53;35.65;;;-2.90;85.00;;;;;;4977715;28;20166;-69
2022/12/18 05:33:22;;;;;;;108.40;36.47;;;-2.90;84.90;;;;;;4977916;28;20498;-69
2022/12/18 05:35:52;;;;;;;106.97;37.90;;;-2.90;84.80;;;;;;4976768;28;20164;-69
2022/12/18 05:38:19;;;;;;;108.15;37.05;;;-2.90;84.90;;;;;;4978032;28;20130;-69
2022/12/18 05:40:45;;;;;;;108.93;37.42;;;-2.90;84.90;;;;;;4974502;28;20096;-69
2022/12/18 05:43:11;;;;;;;110.10;37.22;;;-2.90;84.90;;;;;;4979195;28;20129;-69
2022/12/18 05:45:38;;;;;;;104.32;37.53;;;-2.90;84.90;;;;;;4975806;28;20038;-69
2022/12/18 05:48:04;;;;;;;122.57;42.67;;;-2.90;84.90;;;;;;4977317;28;20085;-69
2022/12/18 05:50:29;;;;;;;106.13;36.15;;;-2.90;85.10;;;;;;4974643;28;20442;-69
2022/12/18 05:52:55;;;;;;;105.30;37.30;;;-2.90;85.10;;;;;;4975704;28;20048;-68
2022/12/18 05:55:20;;;;;;;108.03;37.45;;;-2.90;85.10;;;;;;4977492;28;20120;-68
2022/12/18 05:57:46;;;;;;;105.82;38.88;;;-2.90;85.00;;;;;;4976864;28;20038;-69
2022/12/18 06:00:12;;;;;;;104.43;35.95;;;-2.90;84.90;;;;;;4974283;28;20046;-69
2022/12/18 06:02:38;;;;;;;105.72;36.70;;;-3.00;84.90;;;;;;4974673;28;20035;-69
2022/12/18 06:05:04;;;;;;;104.15;36.05;;;-3.00;85.00;;;;;;4976165;28;20041;-69
2022/12/18 06:07:29;;;;;;;103.15;35.72;;;-2.90;85.20;;;;;;4983632;28;20030;-69
2022/12/18 06:09:55;;;;;;;99.55;34.92;;;-2.90;85.20;;;;;;4981978;28;20494;-69
2022/12/18 06:12:21;;;;;;;101.97;35.47;;;-2.90;85.30;;;;;;4981743;28;20490;-69
2022/12/18 06:14:46;;;;;;;94.90;34.45;;;-2.90;85.20;;;;;;4981466;28;20040;-69
2022/12/18 06:17:12;;;;;;;94.30;34.80;;;-2.90;85.20;;;;;;4984180;28;20054;-69
2022/12/18 06:19:37;;;;;;;103.00;34.92;;;-2.90;85.10;;;;;;4979878;28;20124;-69
2022/12/18 06:22:03;;;;;;;98.65;33.75;;;-2.90;85.20;;;;;;4977256;28;20034;-69
2022/12/18 06:24:30;;;;;;;98.47;34.05;;;-2.90;85.20;;;;;;4974502;28;20038;-70
2022/12/18 06:26:55;;;;;;;93.80;34.10;;;-2.80;85.30;;;;;;4977882;28;20794;-69
2022/12/18 06:29:21;;;;;;;95.78;33.03;;;-2.80;85.40;;;;;;4976929;28;20154;-70
2022/12/18 06:31:47;;;;;;;100.28;36.40;;;-2.80;85.40;;;;;;4979492;28;20039;-69
2022/12/18 06:34:12;;;;;;;110.95;36.35;;;-2.70;85.40;;;;;;4979507;28;20042;-69
2022/12/18 06:36:38;;;;;;;104.00;35.33;;;-2.70;85.10;;;;;;4979518;28;20035;-68
2022/12/18 06:39:03;;;;;;;98.88;34.65;;;-2.70;84.80;;;;;;4982260;28;20062;-69
2022/12/18 06:41:29;;;;;;;101.45;33.92;;;-2.70;84.70;;;;;;4982106;28;20039;-69
2022/12/18 06:43:54;;;;;;;99.30;35.65;;;-2.70;84.80;;;;;;4980085;28;20698;-69
2022/12/18 06:46:20;;;;;;;100.57;33.22;;;-2.70;84.80;;;;;;4980943;28;20030;-69
2022/12/18 06:48:50;;;;;;;93.47;34.38;;;-2.70;84.80;;;;;;4979885;28;20046;-69
2022/12/18 06:51:20;;;;;;;94.22;33.08;;;-2.70;84.80;;;;;;4982970;28;20317;-69
2022/12/18 06:53:45;;;;;;;101.93;34.95;;;-2.70;84.90;;;;;;4978300;28;20095;-69
2022/12/18 06:56:11;;;;;;;107.05;35.60;;;-2.70;84.90;;;;;;4977102;28;20034;-68
2022/12/18 06:58:38;;;;;;;96.38;34.42;;;-2.70;84.70;;;;;;4980414;28;20038;-69
2022/12/18 07:01:09;;;;;;;96.50;34.70;;;-2.70;84.70;;;;;;4979262;28;21520;-67
2022/12/18 07:03:34;;;;;;;106.65;36.42;;;-2.70;84.60;;;;;;4979341;28;20113;-69
2022/12/18 07:06:00;;;;;;;105.00;37.00;;;-2.70;84.40;;;;;;4980133;28;20152;-69
2022/12/18 07:08:25;;;;;;;113.55;36.60;;;-2.80;84.20;;;;;;4978327;28;20579;-70
2022/12/18 07:10:52;;;;;;;98.05;35.03;;;-2.80;84.20;;;;;;4981401;28;20081;-68
2022/12/18 07:13:18;;;;;;;109.55;36.45;;;-2.90;84.40;;;;;;4977675;28;20029;-68
2022/12/18 07:15:44;;;;;;;93.85;33.58;;;-2.90;84.40;;;;;;4980954;28;20022;-69
2022/12/18 07:18:09;;;;;;;93.65;33.63;;;-2.90;84.60;;;;;;4980285;28;20157;-69
2022/12/18 07:20:35;;;;;;;94.65;34.10;;;-3.00;84.80;;;;;;4982463;28;20108;-69
2022/12/18 07:23:05;;;;;;;96.72;32.58;;;-3.00;85.10;;;;;;4980862;28;20526;-70
2022/12/18 07:25:36;;;;;;;91.68;33.78;;;-3.00;86.10;;;;;;4982293;28;20080;-69
2022/12/18 07:28:03;;;;;;;86.28;32.60;;;-3.00;85.40;;;;;;4983960;28;20037;-69
2022/12/18 07:30:28;;;;;;;90.32;31.75;;;-2.90;85.70;;;;;;4982912;28;20154;-69
2022/12/18 07:32:54;;;;;;;89.90;34.58;;;-2.90;85.80;;;;;;4979710;28;20072;-68
2022/12/18 07:35:19;;;;;;;91.38;33.45;;;-2.80;85.80;;;;;;4980963;28;20034;-69
2022/12/18 07:37:45;;;;;;;88.60;31.88;;;-2.80;85.60;;;;;;4981935;28;20593;-69
2022/12/18 07:40:11;;;;;;;90.85;32.85;;;-2.80;85.60;;;;;;4980815;28;20041;-68
2022/12/18 07:42:37;;;;;;;89.28;32.65;;;-2.70;85.70;;;;;;4980401;28;20217;-69
2022/12/18 07:45:03;;;;;;;85.25;32.30;;;-2.70;86.50;;;;;;4980282;28;20114;-69
2022/12/18 07:47:35;;;;;;;83.65;31.38;;;-2.70;85.80;;;;;;4984058;28;20042;-69
2022/12/18 07:50:02;;;;;;;79.65;28.88;;;-2.60;85.80;;;;;;4980704;28;20069;-69
2022/12/18 07:52:28;;;;;;;72.05;27.27;;;-2.50;85.90;;;;;;4980012;28;20045;-69
2022/12/18 07:54:54;;;;;;;74.57;27.20;;;-2.50;85.90;;;;;;4981193;28;20342;-69
2022/12/18 07:57:19;;;;;;;76.68;29.58;;;-2.50;86.60;;;;;;4980472;28;20125;-68
2022/12/18 07:59:45;;;;;;;79.47;29.25;;;-2.40;85.80;;;;;;4980714;28;20410;-69
2022/12/18 08:02:13;;;;;;;76.97;27.95;;;-2.40;85.60;;;;;;4976927;28;20414;-69
2022/12/18 08:04:38;;;;;;;70.95;26.67;;;-2.30;85.60;;;;;;4976377;28;20042;-70
2022/12/18 08:07:04;;;;;;;71.85;27.75;;;-2.30;85.40;;;;;;4981594;28;20039;-68
2022/12/18 08:09:32;;;;;;;63.05;25.40;;;-2.30;85.40;;;;;;4982880;28;20031;-69
2022/12/18 08:11:57;;;;;;;51.00;20.15;;;-2.20;85.40;;;;;;4972315;28;20038;-68
2022/12/18 08:14:23;;;;;;;49.55;19.75;;;-2.20;85.40;;;;;;4962984;28;20525;-67
2022/12/18 08:16:48;;;;;;;48.80;19.85;;;-2.10;85.40;;;;;;4970521;28;20046;-69
2022/12/18 08:19:14;;;;;;;45.30;18.33;;;-2.10;85.40;;;;;;4965739;28;20034;-68
2022/12/18 08:21:39;;;;;;;46.35;18.83;;;-2.10;85.40;;;;;;4969109;28;20390;-69
2022/12/18 08:24:05;;;;;;;49.22;19.58;;;-2.00;85.60;;;;;;4966589;28;20121;-69
2022/12/18 08:26:31;;;;;;;55.53;21.98;;;-2.00;85.50;;;;;;4966114;28;20031;-68
2022/12/18 08:28:59;;;;;;;48.40;19.02;;;-2.00;85.40;;;;;;4969334;28;20060;-67
2022/12/18 08:31:26;;;;;;;47.88;18.10;;;-1.90;85.30;;;;;;4976428;28;20482;-68
2022/12/18 08:33:53;;;;;;;47.78;19.23;;;-1.90;85.10;;;;;;4969686;28;20499;-69
2022/12/18 08:36:19;;;;;;;45.20;18.73;;;-1.90;85.00;;;;;;4970298;28;20193;-68
2022/12/18 08:38:45;;;;;;;43.03;18.70;;;-1.90;85.10;;;;;;4972523;28;20031;-69
2022/12/18 08:41:13;;;;;;;47.58;18.80;;;-1.90;84.90;;;;;;4969049;28;20573;-69
2022/12/18 08:46:25;;;;;;;47.38;19.50;;;-1.90;84.90;;;;;;4975148;28;20050;-68
2022/12/18 08:48:52;;;;;;;50.78;20.25;;;-1.90;84.90;;;;;;4972695;28;20045;-69
2022/12/18 08:51:19;;;;;;;46.25;19.23;;;-1.80;84.90;;;;;;4975296;28;20456;-69
2022/12/18 08:53:45;;;;;;;47.88;20.63;;;-1.90;84.80;;;;;;4963420;28;20057;-68
2022/12/18 08:56:11;;;;;;;45.28;19.17;;;-1.90;84.90;;;;;;4967674;28;20038;-68
2022/12/18 08:58:37;;;;;;;48.78;18.90;;;-1.90;84.70;;;;;;4970469;28;20070;-68
2022/12/18 09:01:04;;;;;;;50.15;18.88;;;-1.90;84.70;;;;;;4973966;28;20035;-69
2022/12/18 09:03:30;;;;;;;47.35;18.60;;;-1.90;84.80;;;;;;4973808;28;20034;-69
2022/12/18 09:05:56;;;;;;;51.15;20.73;;;-1.90;84.90;;;;;;4971842;28;20039;-69
2022/12/18 09:08:21;;;;;;;49.80;20.70;;;-1.90;85.00;;;;;;4972131;28;20572;-69
2022/12/18 09:10:49;;;;;;;46.92;18.92;;;-1.90;85.10;;;;;;4966468;28;20561;-69
2022/12/18 09:13:16;;;;;;;50.47;21.25;;;-1.90;85.10;;;;;;4969363;28;20368;-69
2022/12/18 09:15:47;;;;;;;49.35;20.27;;;-1.90;85.20;;;;;;4968962;28;20058;-69
2022/12/18 09:18:14;;;;;;;49.05;20.05;;;-1.90;85.30;;;;;;4969427;28;20034;-70
2022/12/18 09:20:39;;;;;;;51.90;22.40;;;-1.90;85.40;;;;;;4987716;28;20034;-66
2022/12/18 09:23:06;;;;;;;54.10;21.00;;;-1.90;85.40;;;;;;4968306;28;20038;-68
2022/12/18 09:25:33;;;;;;;50.97;19.90;;;-1.90;85.50;;;;;;4982842;28;20037;-68
2022/12/18 09:28:03;;;;;;;53.85;21.17;;;-1.80;85.70;;;;;;4982898;28;20075;-69
2022/12/18 09:30:29;;;;;;;55.72;22.85;;;-1.80;85.70;;;;;;4980817;28;20048;-69
2022/12/18 09:32:55;;;;;;;50.95;21.02;;;-1.70;85.60;;;;;;4984315;28;20030;-69
2022/12/18 09:35:21;;;;;;;48.78;19.95;;;-1.70;86.10;;;;;;4983919;28;20035;-69
2022/12/18 09:37:46;;;;;;;51.92;20.33;;;-1.70;84.90;;;;;;4979687;28;20066;-69
2022/12/18 09:40:19;;;;;;;50.17;19.42;;;-1.70;84.70;;;;;;4983427;28;20046;-68
2022/12/18 09:42:57;;;;;;;45.88;18.67;;;-1.70;84.80;;;;;;4981337;28;20057;-67
2022/12/18 09:45:23;;;;;;;48.17;18.35;;;-1.70;84.80;;;;;;4979256;28;21145;-69
2022/12/18 09:47:52;;;;;;;42.60;17.88;;;-1.80;84.80;;;;;;4980101;28;20073;-68
2022/12/18 09:50:23;;;;;;;41.47;17.55;;;-1.80;84.70;;;;;;4994376;28;20481;-69
2022/12/18 09:52:53;;;;;;;42.70;17.70;;;-1.80;84.60;;;;;;4976583;28;20038;-68
2022/12/18 09:55:28;;;;;;;42.05;17.38;;;-1.80;84.70;;;;;;4980769;28;20052;-70
2022/12/18 09:58:24;;;;;;;44.92;17.73;;;-1.80;84.70;;;;;;4978291;28;20517;-69
2022/12/18 10:00:52;;;;;;;39.88;15.88;;;-1.90;85.00;;;;;;4972369;28;20513;-68
2022/12/18 10:03:18;;;;;;;36.67;15.80;;;-1.90;84.90;;;;;;4979111;28;20126;-69
2022/12/18 10:05:50;;;;;;;43.15;16.77;;;-1.90;84.70;;;;;;4981361;28;20124;-69
2022/12/18 10:08:45;;;;;;;39.85;15.98;;;-1.90;84.60;;;;;;4981477;28;20056;-68
2022/12/18 10:11:48;;;;;;;35.78;16.02;;;-1.90;84.60;;;;;;4982966;28;20127;-69
2022/12/18 10:14:23;;;;;;;35.80;14.63;;;-2.00;84.70;;;;;;4978771;28;20026;-69
2022/12/18 10:16:55;;;;;;;;;;;-1.90;84.80;;;;;;4983311;28;20050;-69
2022/12/18 10:19:38;;;;;;;36.85;15.32;;;-1.90;85.20;;;;;;4984306;28;20023;-69
2022/12/18 10:22:33;;;;;;;39.78;16.30;;;-1.90;85.00;;;;;;4986957;28;20023;-69
2022/12/18 10:25:15;;;;;;;47.13;19.40;;;-1.90;84.90;;;;;;4980225;28;20026;-70
2022/12/18 10:27:41;;;;;;;48.85;19.92;;;-1.90;84.90;;;;;;4980818;28;20462;-69
2022/12/18 10:30:15;;;;;;;39.45;17.08;;;-1.90;85.00;;;;;;4981266;28;20030;-69
2022/12/18 10:32:41;;;;;;;42.83;17.23;;;-1.90;85.10;;;;;;4983093;28;20034;-69
2022/12/18 10:35:20;;;;;;;40.70;16.88;;;-1.90;85.00;;;;;;4984393;28;20050;-68
2022/12/18 10:38:20;;;;;;;39.28;16.98;;;-1.90;84.70;;;;;;4983393;28;20041;-68
2022/12/18 10:40:53;;;;;;;43.45;16.98;;;-1.90;84.80;;;;;;4980833;28;20050;-69
2022/12/18 10:43:32;;;;;;;43.95;17.42;;;-1.90;84.80;;;;;;4981726;28;20106;-69
2022/12/18 10:46:07;;;;;;;46.08;18.73;;;-1.90;84.90;;;;;;4982311;28;20505;-67
2022/12/18 10:48:46;;;;;;;47.78;18.00;;;-1.90;84.80;;;;;;4983913;28;20039;-70
2022/12/18 10:51:27;;;;;;;45.03;17.85;;;-1.90;85.00;;;;;;4986215;28;20101;-69
2022/12/18 10:54:02;;;;;;;42.13;17.25;;;-1.90;85.20;;;;;;4980455;28;20061;-69
2022/12/18 10:56:29;;;;;;;41.13;17.15;;;-1.80;85.10;;;;;;4982506;28;21507;-68
2022/12/18 10:59:18;;;;;;;42.67;17.27;;;-1.80;84.90;;;;;;4981132;28;20045;-68
2022/12/18 11:01:51;;;;;;;36.13;15.65;;;-1.80;85.00;;;;;;4990179;28;20034;-68
2022/12/18 11:04:20;;;;;;;38.95;15.60;;;-1.70;84.90;;;;;;4988128;28;20038;-69
2022/12/18 11:07:02;;;;;;;45.28;17.10;;;-1.70;84.70;;;;;;4982669;28;20520;-68
2022/12/18 11:09:39;;;;;;;41.42;15.93;;;-1.70;84.70;;;;;;4984073;28;20410;-68
2022/12/18 11:12:14;;;;;;;38.92;16.08;;;-1.70;84.50;;;;;;4986072;28;20034;-68
2022/12/18 11:14:47;;;;;;;37.70;15.60;;;-1.70;84.30;;;;;;4988045;28;20031;-68
2022/12/18 11:17:21;;;;;;;37.70;15.82;;;-1.70;84.20;;;;;;4985680;28;20053;-68
2022/12/18 11:19:54;;;;;;;35.53;15.52;;;-1.70;84.20;;;;;;4985881;28;20042;-68
2022/12/18 11:22:28;;;;;;;39.00;16.50;;;-1.70;84.20;;;;;;4987422;28;20528;-68
2022/12/18 11:25:05;;;;;;;41.95;17.02;;;-1.70;84.00;;;;;;4984921;28;20804;-68
2022/12/18 11:27:32;;;;;;;37.03;14.77;;;-1.80;84.00;;;;;;4986158;28;20382;-68
2022/12/18 11:30:22;;;;;;;36.97;15.32;;;-1.80;84.00;;;;;;4986487;28;20536;-68
2022/12/18 11:32:52;;;;;;;38.53;16.20;;;-1.80;84.00;;;;;;4987391;28;20057;-68
2022/12/18 11:35:23;;;;;;;37.13;15.45;;;-1.80;85.00;;;;;;4986486;28;20502;-68
2022/12/18 11:37:57;;;;;;;38.55;15.48;;;-1.80;84.10;;;;;;4986087;28;20121;-68
2022/12/18 11:40:35;;;;;;;39.70;15.40;;;-1.80;84.20;;;;;;4988904;28;20037;-68
2022/12/18 11:43:10;;;;;;;39.72;15.80;;;-1.90;84.20;;;;;;4989173;28;20076;-68
2022/12/18 11:45:41;;;;;;;35.85;15.43;;;-1.80;84.40;;;;;;4987257;28;20069;-68
2022/12/18 11:48:19;;;;;;;38.25;16.02;;;-1.80;84.40;;;;;;4988320;28;20239;-68
2022/12/18 11:50:52;;;;;;;42.83;17.60;;;-1.80;85.20;;;;;;4984322;28;20030;-67
2022/12/18 11:53:19;;;;;;;41.97;16.33;;;-1.80;84.30;;;;;;4986205;28;20117;-68
2022/12/18 11:56:03;;;;;;;40.50;16.35;;;-1.80;84.30;;;;;;4985789;28;20042;-68
2022/12/18 11:58:44;;;;;;;37.33;15.93;;;-1.80;84.20;;;;;;4987549;28;20049;-67
2022/12/18 12:01:34;;;;;;;40.63;18.00;;;-1.80;84.20;;;;;;4987129;28;20354;-68
2022/12/18 12:04:02;;;;;;;36.80;16.05;;;-1.80;84.20;;;;;;4984882;28;20129;-67
2022/12/18 12:06:28;;;;;;;38.22;15.32;;;-1.80;84.10;;;;;;4986678;28;20050;-69
2022/12/18 12:09:19;;;;;;;36.65;15.68;;;-1.80;84.00;;;;;;4988093;28;20525;-68
2022/12/18 12:11:59;;;;;;;38.58;16.02;;;-1.80;83.90;;;;;;4984832;28;20060;-68
2022/12/18 12:14:49;;;;;;;37.88;16.05;;;-1.90;83.80;;;;;;4987312;28;20039;-68
2022/12/18 12:17:48;;;;;;;34.47;14.45;;;-1.80;83.80;;;;;;4986215;28;20545;-68
2022/12/18 12:20:23;;;;;;;33.08;14.48;;;-1.90;83.80;;;;;;4986382;28;20086;-69
2022/12/18 12:23:14;;;;;;;36.97;15.27;;;-1.90;84.70;;;;;;4987017;28;20117;-69
2022/12/18 12:25:53;;;;;;;38.15;15.80;;;-1.90;83.90;;;;;;4983430;28;20033;-69
2022/12/18 12:28:44;;;;;;;35.22;15.40;;;-1.90;83.90;;;;;;4987643;28;20529;-69
2022/12/18 12:31:31;;;;;;;39.03;15.35;;;-1.90;83.90;;;;;;4987211;28;20062;-69
2022/12/18 12:34:08;;;;;;;41.83;16.92;;;-1.90;83.80;;;;;;4985402;28;20030;-68
2022/12/18 12:36:42;;;;;;;41.75;17.60;;;-2.00;83.70;;;;;;4987176;28;20061;-68
2022/12/18 12:39:14;;;;;;;40.80;16.17;;;-2.00;83.90;;;;;;4986188;28;20034;-69
2022/12/18 12:44:32;;;;;;;43.30;17.45;;;-2.00;84.00;;;;;;4985098;28;20037;-68
2022/12/18 12:47:06;;;;;;;48.67;20.55;;;-2.00;84.70;;;;;;4987092;28;20495;-68
2022/12/18 12:49:33;;;;;;;47.20;19.30;;;-2.00;83.80;;;;;;4983156;28;20117;-68
2022/12/18 12:52:12;;;;;;;44.42;17.65;;;-2.00;83.90;;;;;;4988077;28;20039;-68